House, NM (88121)

6:02 PM MDT on September 02, 2014 (GMT -0600)
Melrose Gunnery Range | Change Station
CLOSE
Current Station
Airport
Location: Melrose Gunnery Range,
Elevation: 4350 ft
Nearby Weather Stations

Elev 4350 ft 34.30 °N, 103.80 °W | Updated 1 hour ago

Clear
Clear
93 °F
Feels Like 93 °F
N
8
Wind Variable Wind from SSE

Today
High -- | Low -- °F
--% Chance of Precip.
Yesterday
High -- | Low -- °F
Precip. -- in
6:29 AM 7:20 PM
First Quarter, 56% visible
Pressure 29.77 in
Visibility 10.0 miles
Clouds Clear
Dew Point 44 °F
Humidity 18%
Rainfall 0.00 in
Snow Depth Not available.
UV 3 out of 12
Pollen 9.80 out of 12
Air Quality Not available.
Flu Activity Not available.
METAR K4MR 022256Z AUTO 15007KT 10SM CLR 34/06 A2998 RMK AO2 SLP081 T03380064

More Conditions Fewer Conditions

Pressure 29.77 in
Visibility 10.0 miles
Clouds Clear
Dew Point 44 °F
Humidity 18%
Rainfall 0.00 in
Snow Depth Not available.
UV 3 out of 12
Pollen 9.80 out of 12
Air Quality Not available.
Flu Activity Not available.
METAR K4MR 022256Z AUTO 15007KT 10SM CLR 34/06 A2998 RMK AO2 SLP081 T03380064

More Conditions Fewer Conditions

10-Day Weather Forecast

Almanac

Astronomy

Sep. 02, 2014 Rise Set
Actual Time 6:29 AM MDT 7:20 PM MDT
Civil Twilight 6:03 AM MDT 7:46 PM MDT
Nautical Twilight 5:33 AM MDT 8:16 PM MDT
Astronomical Twilight 5:02 AM MDT 8:48 PM MDT
Moon 1:59 PM MDT (9/2) No Moon Set
Length of Visible Light 13h 42m
Length of Day
12h 51m
Tomorrow will be 2m 5s shorter.
First Quarter, 56% of the Moon is Illuminated
Today
First Quarter
Sep 8
Full
Sep 15
Last Quarter
Sep 24
New
Oct 1
First Quarter

Today's Extremes

State Highs State Lows

Community

WunderPhotos

Upload Photos

1,749,803 photos uploaded!

Nearby

Snow Depth

Station Depth Elevation
Wesner Springs 1 in 11120 ft
Santa Fe 0 in 11445 ft
Sierra Blanca 0 in 10280 ft
Red River Pass #2 0 in 9850 ft
Quemazon 0 in 9500 ft

Earthquake Activity

City Distance Mag. Time & Date
No recent earthquake activity has been reported nearby.
Minimum magnitude displayed is 2.5.

Coastal Water Temperatures

Place Temperature
No Stations Reporting

Nearby Weather Stations